sensor_id;sensor_type;location;lat;lon;timestamp;pressure;altitude;pressure_sealevel;temperature;humidity
10897;BME280;5501;51.176;6.470;2023-05-23T00:00:37;101184.63;;;18.03;87.57
10897;BME280;5501;51.176;6.470;2023-05-23T00:05:39;101180.81;;;18.07;88.18
10897;BME280;5501;51.176;6.470;2023-05-23T00:10:41;101182.94;;;17.84;89.56
10897;BME280;5501;51.176;6.470;2023-05-23T00:15:42;101184.78;;;18.00;89.35
10897;BME280;5501;51.176;6.470;2023-05-23T00:20:44;101191.50;;;18.09;88.79
10897;BME280;5501;51.176;6.470;2023-05-23T00:25:45;101185.75;;;18.16;88.41
10897;BME280;5501;51.176;6.470;2023-05-23T00:30:53;101197.38;;;18.00;89.68
10897;BME280;5501;51.176;6.470;2023-05-23T00:35:55;101199.91;;;18.03;89.35
10897;BME280;5501;51.176;6.470;2023-05-23T00:40:56;101203.91;;;17.77;90.74
10897;BME280;5501;51.176;6.470;2023-05-23T00:45:58;101219.69;;;17.66;90.31
10897;BME280;5501;51.176;6.470;2023-05-23T00:51:01;101218.03;;;17.64;90.42
10897;BME280;5501;51.176;6.470;2023-05-23T00:56:03;101234.47;;;17.76;89.85
10897;BME280;5501;51.176;6.470;2023-05-23T01:01:04;101229.34;;;17.70;87.98
10897;BME280;5501;51.176;6.470;2023-05-23T01:06:06;101227.63;;;17.32;85.91
10897;BME280;5501;51.176;6.470;2023-05-23T01:11:26;101221.56;;;17.47;85.58
10897;BME280;5501;51.176;6.470;2023-05-23T01:16:35;101226.03;;;17.65;83.95
10897;BME280;5501;51.176;6.470;2023-05-23T01:21:38;101231.72;;;17.59;84.29
10897;BME280;5501;51.176;6.470;2023-05-23T01:31:54;101224.88;;;17.52;85.97
10897;BME280;5501;51.176;6.470;2023-05-23T01:36:57;101233.63;;;17.37;86.91
10897;BME280;5501;51.176;6.470;2023-05-23T01:41:59;101238.28;;;17.15;88.37
10897;BME280;5501;51.176;6.470;2023-05-23T01:47:02;101241.53;;;17.03;89.18
10897;BME280;5501;51.176;6.470;2023-05-23T01:52:04;101238.34;;;17.14;89.04
10897;BME280;5501;51.176;6.470;2023-05-23T01:57:06;101237.47;;;17.32;88.05
10897;BME280;5501;51.176;6.470;2023-05-23T02:02:07;101245.63;;;17.30;87.35
10897;BME280;5501;51.176;6.470;2023-05-23T02:07:09;101239.22;;;17.33;86.83
10897;BME280;5501;51.176;6.470;2023-05-23T02:12:10;101241.56;;;17.22;87.03
10897;BME280;5501;51.176;6.470;2023-05-23T02:17:12;101241.63;;;17.20;87.01
10897;BME280;5501;51.176;6.470;2023-05-23T02:22:15;101248.09;;;17.16;86.57
10897;BME280;5501;51.176;6.470;2023-05-23T02:27:17;101245.16;;;17.02;87.21
10897;BME280;5501;51.176;6.470;2023-05-23T02:32:18;101241.56;;;17.22;86.21
10897;BME280;5501;51.176;6.470;2023-05-23T02:37:20;101247.06;;;17.19;85.80
10897;BME280;5501;51.176;6.470;2023-05-23T02:42:21;101261.59;;;17.15;85.92
10897;BME280;5501;51.176;6.470;2023-05-23T02:47:23;101267.72;;;16.98;86.52
10897;BME280;5501;51.176;6.470;2023-05-23T02:52:24;101263.72;;;16.88;87.25
10897;BME280;5501;51.176;6.470;2023-05-23T02:57:26;101260.38;;;16.63;89.69
10897;BME280;5501;51.176;6.470;2023-05-23T03:02:28;101277.03;;;16.71;89.15
10897;BME280;5501;51.176;6.470;2023-05-23T03:07:30;101282.28;;;16.74;89.93
10897;BME280;5501;51.176;6.470;2023-05-23T03:12:33;101281.84;;;17.03;88.00
10897;BME280;5501;51.176;6.470;2023-05-23T03:17:35;101285.75;;;16.76;90.39
10897;BME280;5501;51.176;6.470;2023-05-23T03:22:37;101296.09;;;16.65;91.56
10897;BME280;5501;51.176;6.470;2023-05-23T03:27:38;101281.94;;;16.40;92.76
10897;BME280;5501;51.176;6.470;2023-05-23T03:32:40;101282.53;;;16.48;93.96
10897;BME280;5501;51.176;6.470;2023-05-23T03:37:41;101284.97;;;16.54;91.72
10897;BME280;5501;51.176;6.470;2023-05-23T03:42:43;101290.22;;;16.36;92.76
10897;BME280;5501;51.176;6.470;2023-05-23T03:47:44;101292.31;;;16.49;91.79
10897;BME280;5501;51.176;6.470;2023-05-23T03:52:46;101297.03;;;16.44;91.42
10897;BME280;5501;51.176;6.470;2023-05-23T03:57:48;101301.31;;;16.48;91.40
10897;BME280;5501;51.176;6.470;2023-05-23T04:02:51;101299.94;;;16.38;91.43
10897;BME280;5501;51.176;6.470;2023-05-23T04:07:57;101307.53;;;16.50;90.68
10897;BME280;5501;51.176;6.470;2023-05-23T04:13:01;101316.69;;;16.23;91.89
10897;BME280;5501;51.176;6.470;2023-05-23T04:18:03;101301.69;;;16.39;91.64
10897;BME280;5501;51.176;6.470;2023-05-23T04:23:04;101317.72;;;16.42;91.22
10897;BME280;5501;51.176;6.470;2023-05-23T04:28:10;101326.03;;;16.56;91.28
10897;BME280;5501;51.176;6.470;2023-05-23T04:33:12;101331.22;;;16.39;91.38
10897;BME280;5501;51.176;6.470;2023-05-23T04:38:14;101324.53;;;16.49;91.75
10897;BME280;5501;51.176;6.470;2023-05-23T04:43:16;101323.16;;;16.61;93.02
10897;BME280;5501;51.176;6.470;2023-05-23T04:48:23;101330.97;;;16.45;92.31
10897;BME280;5501;51.176;6.470;2023-05-23T04:53:25;101342.84;;;16.18;92.93
10897;BME280;5501;51.176;6.470;2023-05-23T04:58:27;101342.84;;;16.18;93.57
10897;BME280;5501;51.176;6.470;2023-05-23T05:03:32;101332.56;;;16.29;92.89
10897;BME280;5501;51.176;6.470;2023-05-23T05:08:34;101349.03;;;16.42;92.94
10897;BME280;5501;51.176;6.470;2023-05-23T05:13:37;101347.66;;;16.10;94.39
10897;BME280;5501;51.176;6.470;2023-05-23T05:18:39;101348.78;;;16.26;94.61
10897;BME280;5501;51.176;6.470;2023-05-23T05:23:40;101352.75;;;16.16;93.50
10897;BME280;5501;51.176;6.470;2023-05-23T05:28:42;101359.88;;;16.39;92.90
10897;BME280;5501;51.176;6.470;2023-05-23T05:33:43;101373.03;;;16.46;93.05
10897;BME280;5501;51.176;6.470;2023-05-23T05:38:48;101374.28;;;16.36;92.97
10897;BME280;5501;51.176;6.470;2023-05-23T05:43:52;101371.34;;;16.44;92.25
10897;BME280;5501;51.176;6.470;2023-05-23T05:48:54;101384.84;;;16.19;93.44
10897;BME280;5501;51.176;6.470;2023-05-23T05:53:56;101381.84;;;16.05;95.86
10897;BME280;5501;51.176;6.470;2023-05-23T05:58:57;101378.44;;;16.00;96.15
10897;BME280;5501;51.176;6.470;2023-05-23T06:04:00;101388.22;;;16.24;94.79
10897;BME280;5501;51.176;6.470;2023-05-23T06:09:02;101393.47;;;16.27;94.46
10897;BME280;5501;51.176;6.470;2023-05-23T06:14:03;101383.63;;;16.28;93.92
10897;BME280;5501;51.176;6.470;2023-05-23T06:19:06;101393.16;;;16.13;93.73
10897;BME280;5501;51.176;6.470;2023-05-23T06:24:10;101398.00;;;16.48;91.76
10897;BME280;5501;51.176;6.470;2023-05-23T06:29:11;101409.78;;;16.44;91.46
10897;BME280;5501;51.176;6.470;2023-05-23T06:34:13;101406.88;;;16.27;91.78
10897;BME280;5501;51.176;6.470;2023-05-23T06:39:14;101404.03;;;16.53;90.36
10897;BME280;5501;51.176;6.470;2023-05-23T06:44:16;101407.22;;;16.41;90.65
10897;BME280;5501;51.176;6.470;2023-05-23T06:49:18;101417.06;;;16.42;90.99
10897;BME280;5501;51.176;6.470;2023-05-23T06:54:20;101421.94;;;16.31;92.20
10897;BME280;5501;51.176;6.470;2023-05-23T06:59:22;101423.03;;;16.26;92.38
10897;BME280;5501;51.176;6.470;2023-05-23T07:04:24;101427.31;;;16.31;92.87
10897;BME280;5501;51.176;6.470;2023-05-23T07:09:27;101437.25;;;16.51;92.91
10897;BME280;5501;51.176;6.470;2023-05-23T07:14:39;101431.50;;;16.38;92.72
10897;BME280;5501;51.176;6.470;2023-05-23T07:19:41;101439.94;;;16.29;93.25
10897;BME280;5501;51.176;6.470;2023-05-23T07:24:42;101445.78;;;16.17;95.16
10897;BME280;5501;51.176;6.470;2023-05-23T07:29:44;101454.63;;;16.19;93.95
10897;BME280;5501;51.176;6.470;2023-05-23T07:34:46;101458.94;;;16.23;93.73
10897;BME280;5501;51.176;6.470;2023-05-23T07:39:48;101463.72;;;16.15;93.94
10897;BME280;5501;51.176;6.470;2023-05-23T07:44:50;101459.72;;;16.04;94.06
10897;BME280;5501;51.176;6.470;2023-05-23T07:49:52;101474.63;;;16.11;93.27
10897;BME280;5501;51.176;6.470;2023-05-23T07:54:54;101475.06;;;15.77;94.76
10897;BME280;5501;51.176;6.470;2023-05-23T07:59:56;101470.50;;;15.79;95.19
10897;BME280;5501;51.176;6.470;2023-05-23T08:04:59;101477.03;;;15.95;94.59
10897;BME280;5501;51.176;6.470;2023-05-23T08:10:00;101486.66;;;16.01;94.13
10897;BME280;5501;51.176;6.470;2023-05-23T08:15:02;101488.81;;;15.68;95.84
10897;BME280;5501;51.176;6.470;2023-05-23T08:20:09;101494.72;;;15.53;97.22
10897;BME280;5501;51.176;6.470;2023-05-23T08:25:12;101504.16;;;15.39;98.45
10897;BME280;5501;51.176;6.470;2023-05-23T08:30:14;101508.69;;;15.10;100.00
10897;BME280;5501;51.176;6.470;2023-05-23T08:35:16;101508.31;;;15.21;100.00
10897;BME280;5501;51.176;6.470;2023-05-23T08:40:19;101515.66;;;15.16;100.00
10897;BME280;5501;51.176;6.470;2023-05-23T08:45:29;101527.03;;;15.22;99.51
10897;BME280;5501;51.176;6.470;2023-05-23T08:50:31;101524.56;;;15.67;96.60
10897;BME280;5501;51.176;6.470;2023-05-23T08:55:33;101530.47;;;16.01;91.45
10897;BME280;5501;51.176;6.470;2023-05-23T09:00:36;101553.34;;;16.11;89.59
10897;BME280;5501;51.176;6.470;2023-05-23T09:05:38;101550.63;;;15.88;90.26
10897;BME280;5501;51.176;6.470;2023-05-23T09:10:40;101552.59;;;16.08;88.43
10897;BME280;5501;51.176;6.470;2023-05-23T09:21:01;101564.16;;;15.85;89.41
10897;BME280;5501;51.176;6.470;2023-05-23T09:26:05;101580.25;;;15.85;89.44
10897;BME280;5501;51.176;6.470;2023-05-23T09:31:08;101585.66;;;15.59;87.98
10897;BME280;5501;51.176;6.470;2023-05-23T09:36:10;101577.78;;;15.27;88.54
10897;BME280;5501;51.176;6.470;2023-05-23T09:41:12;101600.72;;;15.37;88.10
10897;BME280;5501;51.176;6.470;2023-05-23T09:46:14;101590.56;;;15.19;88.41
10897;BME280;5501;51.176;6.470;2023-05-23T09:51:17;101591.44;;;15.19;85.73
10897;BME280;5501;51.176;6.470;2023-05-23T09:56:19;101598.75;;;15.42;81.84
10897;BME280;5501;51.176;6.470;2023-05-23T10:01:20;101603.63;;;15.82;78.99
10897;BME280;5501;51.176;6.470;2023-05-23T10:06:28;101593.84;;;16.53;76.88
10897;BME280;5501;51.176;6.470;2023-05-23T10:21:46;101591.91;;;16.79;74.10
10897;BME280;5501;51.176;6.470;2023-05-23T10:26:50;101593.78;;;16.99;74.23
10897;BME280;5501;51.176;6.470;2023-05-23T10:31:52;101593.53;;;18.09;67.89
10897;BME280;5501;51.176;6.470;2023-05-23T10:37:01;101586.81;;;18.76;64.09
10897;BME280;5501;51.176;6.470;2023-05-23T10:42:14;101583.47;;;18.53;65.00
10897;BME280;5501;51.176;6.470;2023-05-23T10:47:26;101591.25;;;18.00;66.54
10897;BME280;5501;51.176;6.470;2023-05-23T10:52:29;101599.59;;;18.14;65.88
10897;BME280;5501;51.176;6.470;2023-05-23T10:57:39;101593.59;;;18.08;66.26
10897;BME280;5501;51.176;6.470;2023-05-23T11:02:53;101604.78;;;17.14;69.44
10897;BME280;5501;51.176;6.470;2023-05-23T11:13:09;101603.88;;;17.58;65.41
10897;BME280;5501;51.176;6.470;2023-05-23T11:18:18;101603.19;;;17.53;65.65
10897;BME280;5501;51.176;6.470;2023-05-23T11:23:21;101607.84;;;17.50;67.03
10897;BME280;5501;51.176;6.470;2023-05-23T11:28:22;101602.53;;;17.48;67.54
10897;BME280;5501;51.176;6.470;2023-05-23T11:33:25;101607.25;;;17.83;66.64
10897;BME280;5501;51.176;6.470;2023-05-23T11:38:26;101607.19;;;18.05;62.14
10897;BME280;5501;51.176;6.470;2023-05-23T11:43:28;101598.97;;;18.66;61.27
10897;BME280;5501;51.176;6.470;2023-05-23T11:48:29;101611.81;;;18.61;58.24
10897;BME280;5501;51.176;6.470;2023-05-23T11:53:31;101616.69;;;18.13;61.64
10897;BME280;5501;51.176;6.470;2023-05-23T11:58:34;101619.50;;;17.90;61.58
10897;BME280;5501;51.176;6.470;2023-05-23T12:03:45;101629.50;;;18.08;60.54
10897;BME280;5501;51.176;6.470;2023-05-23T12:08:47;101627.06;;;18.02;62.11
10897;BME280;5501;51.176;6.470;2023-05-23T12:13:48;101622.53;;;18.23;61.18
10897;BME280;5501;51.176;6.470;2023-05-23T12:18:53;101612.91;;;18.57;58.75
10897;BME280;5501;51.176;6.470;2023-05-23T12:23:55;101615.09;;;18.86;59.06
10897;BME280;5501;51.176;6.470;2023-05-23T12:28:56;101613.25;;;18.68;55.94
10897;BME280;5501;51.176;6.470;2023-05-23T12:34:00;101619.91;;;18.98;54.70
10897;BME280;5501;51.176;6.470;2023-05-23T12:39:02;101610.72;;;18.84;54.27
10897;BME280;5501;51.176;6.470;2023-05-23T12:44:04;101605.31;;;18.65;51.76
10897;BME280;5501;51.176;6.470;2023-05-23T12:49:05;101617.09;;;18.24;53.66
10897;BME280;5501;51.176;6.470;2023-05-23T12:54:09;101615.31;;;18.43;53.93
10897;BME280;5501;51.176;6.470;2023-05-23T12:59:11;101618.16;;;18.40;53.78
10897;BME280;5501;51.176;6.470;2023-05-23T13:04:12;101614.72;;;18.75;50.17
10897;BME280;5501;51.176;6.470;2023-05-23T13:09:14;101620.28;;;18.52;50.67
10897;BME280;5501;51.176;6.470;2023-05-23T13:14:16;101609.00;;;18.63;48.88
10897;BME280;5501;51.176;6.470;2023-05-23T13:19:17;101623.97;;;18.88;47.50
10897;BME280;5501;51.176;6.470;2023-05-23T13:24:19;101631.47;;;19.00;47.66
10897;BME280;5501;51.176;6.470;2023-05-23T13:29:20;101620.50;;;19.23;48.83
10897;BME280;5501;51.176;6.470;2023-05-23T13:34:22;101622.72;;;19.32;49.56
10897;BME280;5501;51.176;6.470;2023-05-23T13:39:23;101619.41;;;19.44;48.29
10897;BME280;5501;51.176;6.470;2023-05-23T13:44:25;101620.38;;;19.43;49.81
10897;BME280;5501;51.176;6.470;2023-05-23T13:49:26;101619.72;;;18.64;49.94
10897;BME280;5501;51.176;6.470;2023-05-23T13:54:28;101614.34;;;18.64;49.84
10897;BME280;5501;51.176;6.470;2023-05-23T13:59:29;101616.88;;;19.04;49.21
10897;BME280;5501;51.176;6.470;2023-05-23T14:04:31;101619.59;;;19.04;47.16
10897;BME280;5501;51.176;6.470;2023-05-23T14:09:32;101610.91;;;19.16;48.46
10897;BME280;5501;51.176;6.470;2023-05-23T14:14:34;101601.03;;;18.98;47.58
10897;BME280;5501;51.176;6.470;2023-05-23T14:19:36;101606.25;;;19.01;47.76
10897;BME280;5501;51.176;6.470;2023-05-23T14:24:37;101594.78;;;19.33;46.92
10897;BME280;5501;51.176;6.470;2023-05-23T14:29:39;101608.38;;;18.95;47.75
10897;BME280;5501;51.176;6.470;2023-05-23T14:34:40;101611.22;;;19.10;47.75
10897;BME280;5501;51.176;6.470;2023-05-23T14:39:42;101608.66;;;19.26;46.62
10897;BME280;5501;51.176;6.470;2023-05-23T14:44:43;101611.00;;;18.96;47.17
10897;BME280;5501;51.176;6.470;2023-05-23T14:49:44;101607.03;;;19.40;47.38
10897;BME280;5501;51.176;6.470;2023-05-23T14:54:46;101616.22;;;19.36;47.28
10897;BME280;5501;51.176;6.470;2023-05-23T14:59:48;101605.94;;;19.61;45.51
10897;BME280;5501;51.176;6.470;2023-05-23T15:04:49;101601.50;;;19.43;45.46
10897;BME280;5501;51.176;6.470;2023-05-23T15:09:51;101607.44;;;19.50;46.10
10897;BME280;5501;51.176;6.470;2023-05-23T15:14:53;101605.75;;;18.93;46.75
10897;BME280;5501;51.176;6.470;2023-05-23T15:19:54;101617.53;;;18.91;45.87
10897;BME280;5501;51.176;6.470;2023-05-23T15:24:57;101600.66;;;18.87;46.00
10897;BME280;5501;51.176;6.470;2023-05-23T15:30:01;101603.22;;;18.90;46.34
10897;BME280;5501;51.176;6.470;2023-05-23T15:35:02;101605.59;;;18.96;46.52
10897;BME280;5501;51.176;6.470;2023-05-23T15:40:04;101608.38;;;18.76;46.65
10897;BME280;5501;51.176;6.470;2023-05-23T15:45:08;101591.91;;;19.01;45.12
10897;BME280;5501;51.176;6.470;2023-05-23T15:50:10;101594.09;;;18.74;45.54
10897;BME280;5501;51.176;6.470;2023-05-23T15:55:14;101604.97;;;18.34;45.28
10897;BME280;5501;51.176;6.470;2023-05-23T16:00:16;101586.34;;;18.48;46.02
10897;BME280;5501;51.176;6.470;2023-05-23T16:05:17;101608.53;;;18.73;44.77
10897;BME280;5501;51.176;6.470;2023-05-23T16:10:19;101602.31;;;18.71;46.25
10897;BME280;5501;51.176;6.470;2023-05-23T16:15:20;101596.75;;;18.17;47.63
10897;BME280;5501;51.176;6.470;2023-05-23T16:20:22;101613.66;;;17.81;48.83
10897;BME280;5501;51.176;6.470;2023-05-23T16:25:23;101616.81;;;18.10;49.11
10897;BME280;5501;51.176;6.470;2023-05-23T16:30:25;101601.25;;;18.75;48.42
10897;BME280;5501;51.176;6.470;2023-05-23T16:35:28;101611.88;;;18.60;47.30
10897;BME280;5501;51.176;6.470;2023-05-23T16:40:29;101614.94;;;17.72;48.06
10897;BME280;5501;51.176;6.470;2023-05-23T16:45:31;101612.81;;;17.59;48.94
10897;BME280;5501;51.176;6.470;2023-05-23T16:50:32;101623.09;;;17.49;50.01
10897;BME280;5501;51.176;6.470;2023-05-23T16:55:33;101617.47;;;17.55;48.78
10897;BME280;5501;51.176;6.470;2023-05-23T17:00:35;101620.53;;;17.88;47.63
10897;BME280;5501;51.176;6.470;2023-05-23T17:05:36;101630.38;;;17.67;47.82
10897;BME280;5501;51.176;6.470;2023-05-23T17:10:39;101621.38;;;17.68;48.73
10897;BME280;5501;51.176;6.470;2023-05-23T17:15:41;101630.38;;;17.67;48.61
10897;BME280;5501;51.176;6.470;2023-05-23T17:20:43;101628.19;;;17.34;48.12
10897;BME280;5501;51.176;6.470;2023-05-23T17:25:45;101627.59;;;17.27;48.43
10897;BME280;5501;51.176;6.470;2023-05-23T17:30:47;101627.06;;;17.18;47.85
10897;BME280;5501;51.176;6.470;2023-05-23T17:35:48;101631.44;;;17.20;47.50
10897;BME280;5501;51.176;6.470;2023-05-23T17:40:50;101625.31;;;16.95;48.38
10897;BME280;5501;51.176;6.470;2023-05-23T17:45:51;101633.69;;;17.09;49.86
10897;BME280;5501;51.176;6.470;2023-05-23T17:50:53;101643.22;;;17.18;50.17
10897;BME280;5501;51.176;6.470;2023-05-23T17:55:54;101638.53;;;16.78;49.99
10897;BME280;5501;51.176;6.470;2023-05-23T18:00:55;101642.59;;;16.65;50.06
10897;BME280;5501;51.176;6.470;2023-05-23T18:05:57;101649.19;;;16.57;49.35
10897;BME280;5501;51.176;6.470;2023-05-23T18:10:58;101655.50;;;16.31;49.96
10897;BME280;5501;51.176;6.470;2023-05-23T18:16:00;101650.41;;;16.48;50.49
10897;BME280;5501;51.176;6.470;2023-05-23T18:21:01;101657.47;;;16.26;51.33
10897;BME280;5501;51.176;6.470;2023-05-23T18:26:03;101663.97;;;16.68;50.29
10897;BME280;5501;51.176;6.470;2023-05-23T18:31:04;101652.44;;;16.17;50.35
10897;BME280;5501;51.176;6.470;2023-05-23T18:36:06;101665.13;;;16.12;50.04
10897;BME280;5501;51.176;6.470;2023-05-23T18:41:08;101662.69;;;16.06;48.92
10897;BME280;5501;51.176;6.470;2023-05-23T18:46:14;101667.81;;;15.88;50.09
10897;BME280;5501;51.176;6.470;2023-05-23T18:51:16;101668.47;;;16.19;49.65
10897;BME280;5501;51.176;6.470;2023-05-23T18:56:18;101669.50;;;15.90;50.27
10897;BME280;5501;51.176;6.470;2023-05-23T19:01:19;101685.69;;;15.87;51.31
10897;BME280;5501;51.176;6.470;2023-05-23T19:06:21;101693.97;;;15.81;51.92
10897;BME280;5501;51.176;6.470;2023-05-23T19:11:23;101702.16;;;15.77;51.38
10897;BME280;5501;51.176;6.470;2023-05-23T19:16:24;101711.59;;;15.88;51.97
10897;BME280;5501;51.176;6.470;2023-05-23T19:21:26;101717.50;;;15.73;51.93
10897;BME280;5501;51.176;6.470;2023-05-23T19:26:27;101720.97;;;15.75;52.15
10897;BME280;5501;51.176;6.470;2023-05-23T19:31:29;101724.78;;;15.41;52.50
10897;BME280;5501;51.176;6.470;2023-05-23T19:36:31;101715.31;;;15.29;53.06
10897;BME280;5501;51.176;6.470;2023-05-23T19:41:33;101720.03;;;15.50;52.59
10897;BME280;5501;51.176;6.470;2023-05-23T19:46:34;101722.06;;;15.42;52.91
10897;BME280;5501;51.176;6.470;2023-05-23T19:51:36;101720.50;;;15.35;53.59
10897;BME280;5501;51.176;6.470;2023-05-23T19:56:37;101743.94;;;15.27;53.64
10897;BME280;5501;51.176;6.470;2023-05-23T20:01:41;101753.66;;;15.31;53.65
10897;BME280;5501;51.176;6.470;2023-05-23T20:06:42;101759.72;;;15.08;54.32
10897;BME280;5501;51.176;6.470;2023-05-23T20:11:44;101764.34;;;15.03;54.58
10897;BME280;5501;51.176;6.470;2023-05-23T20:16:45;101767.94;;;14.72;55.91
10897;BME280;5501;51.176;6.470;2023-05-23T20:21:47;101785.28;;;14.59;56.09
10897;BME280;5501;51.176;6.470;2023-05-23T20:26:49;101791.69;;;14.84;54.58
10897;BME280;5501;51.176;6.470;2023-05-23T20:31:51;101792.97;;;14.39;56.51
10897;BME280;5501;51.176;6.470;2023-05-23T20:36:52;101798.19;;;14.42;55.27
10897;BME280;5501;51.176;6.470;2023-05-23T20:41:54;101805.72;;;14.28;56.61
10897;BME280;5501;51.176;6.470;2023-05-23T20:46:55;101808.16;;;14.02;56.55
10897;BME280;5501;51.176;6.470;2023-05-23T20:51:57;101800.56;;;14.19;56.21
10897;BME280;5501;51.176;6.470;2023-05-23T20:56:59;101812.69;;;13.98;57.29
10897;BME280;5501;51.176;6.470;2023-05-23T21:02:00;101822.34;;;13.67;57.78
10897;BME280;5501;51.176;6.470;2023-05-23T21:07:02;101822.72;;;13.89;56.44
10897;BME280;5501;51.176;6.470;2023-05-23T21:12:04;101816.28;;;13.61;57.75
10897;BME280;5501;51.176;6.470;2023-05-23T21:17:05;101828.44;;;13.74;57.28
10897;BME280;5501;51.176;6.470;2023-05-23T21:22:07;101828.44;;;13.74;57.48
10897;BME280;5501;51.176;6.470;2023-05-23T21:27:08;101833.16;;;13.61;57.48
10897;BME280;5501;51.176;6.470;2023-05-23T21:32:10;101836.97;;;13.51;58.20
10897;BME280;5501;51.176;6.470;2023-05-23T21:37:11;101836.16;;;13.48;58.72
10897;BME280;5501;51.176;6.470;2023-05-23T21:42:12;101835.97;;;13.57;58.21
10897;BME280;5501;51.176;6.470;2023-05-23T21:47:14;101834.59;;;13.38;59.50
10897;BME280;5501;51.176;6.470;2023-05-23T21:52:15;101836.34;;;13.39;59.90
10897;BME280;5501;51.176;6.470;2023-05-23T21:57:17;101828.06;;;13.10;61.45
10897;BME280;5501;51.176;6.470;2023-05-23T22:02:18;101834.66;;;13.35;60.42
10897;BME280;5501;51.176;6.470;2023-05-23T22:07:20;101823.72;;;13.04;61.80
10897;BME280;5501;51.176;6.470;2023-05-23T22:12:25;101829.91;;;13.08;61.70
10897;BME280;5501;51.176;6.470;2023-05-23T22:17:26;101835.31;;;13.05;61.85
10897;BME280;5501;51.176;6.470;2023-05-23T22:22:29;101838.19;;;13.37;61.25
10897;BME280;5501;51.176;6.470;2023-05-23T22:27:31;101833.41;;;13.10;61.75
10897;BME280;5501;51.176;6.470;2023-05-23T22:32:34;101831.25;;;13.27;61.89
10897;BME280;5501;51.176;6.470;2023-05-23T22:37:36;101837.22;;;12.97;63.32
10897;BME280;5501;51.176;6.470;2023-05-23T22:42:37;101825.81;;;13.33;62.04
10897;BME280;5501;51.176;6.470;2023-05-23T22:47:40;101828.22;;;13.04;63.06
10897;BME280;5501;51.176;6.470;2023-05-23T22:52:41;101809.34;;;12.66;63.47
10897;BME280;5501;51.176;6.470;2023-05-23T22:57:43;101821.59;;;12.76;64.05
10897;BME280;5501;51.176;6.470;2023-05-23T23:02:44;101833.75;;;12.92;64.24
10897;BME280;5501;51.176;6.470;2023-05-23T23:07:46;101828.97;;;12.62;64.88
10897;BME280;5501;51.176;6.470;2023-05-23T23:12:48;101832.75;;;12.97;64.01
10897;BME280;5501;51.176;6.470;2023-05-23T23:17:49;101836.38;;;12.48;65.52
10897;BME280;5501;51.176;6.470;2023-05-23T23:22:51;101837.22;;;12.48;65.77
10897;BME280;5501;51.176;6.470;2023-05-23T23:27:52;101833.06;;;12.81;64.85
10897;BME280;5501;51.176;6.470;2023-05-23T23:32:54;101841.56;;;12.54;66.71
10897;BME280;5501;51.176;6.470;2023-05-23T23:37:55;101838.00;;;12.55;66.45
10897;BME280;5501;51.176;6.470;2023-05-23T23:42:57;101828.94;;;12.65;66.80
10897;BME280;5501;51.176;6.470;2023-05-23T23:47:58;101836.63;;;12.33;67.47
10897;BME280;5501;51.176;6.470;2023-05-23T23:53:00;101839.16;;;12.40;67.64
10897;BME280;5501;51.176;6.470;2023-05-23T23:58:01;101834.91;;;12.29;68.14
